Time,TemperatureF,DewpointF,PressureIn,WindDirection,WindDirectionDegrees,WindSpeedMPH,WindSpeedGustMPH,Humidity,HourlyPrecipIn,Conditions,Clouds,dailyrainin,SoftwareType,DateUTC
2013-11-10 00:00:00,49.7,37.2,30.20,WSW,248,2.0,-999.0,62,0.00,,,0.00,Wunderground v.1.15,2013-11-10 05:00:00,
2013-11-10 00:05:00,49.7,37.2,30.20,WSW,248,2.0,-999.0,62,0.00,,,0.00,Wunderground v.1.15,2013-11-10 05:05:00,
2013-11-10 00:10:00,49.7,37.2,30.20,WSW,248,2.0,-999.0,62,0.00,,,0.00,Wunderground v.1.15,2013-11-10 05:10:00,
2013-11-10 00:15:00,49.7,37.2,30.20,WSW,248,2.0,-999.0,62,0.00,,,0.00,Wunderground v.1.15,2013-11-10 05:15:00,
2013-11-10 00:20:00,49.7,37.2,30.20,WSW,248,2.0,-999.0,62,0.00,,,0.00,Wunderground v.1.15,2013-11-10 05:20:00,
2013-11-10 00:25:00,49.7,37.2,30.20,WSW,248,2.0,-999.0,62,0.00,,,0.00,Wunderground v.1.15,2013-11-10 05:25:00,
2013-11-10 00:30:00,49.7,37.2,30.20,WSW,248,2.0,-999.0,62,0.00,,,0.00,Wunderground v.1.15,2013-11-10 05:30:00,
2013-11-10 00:35:00,49.7,37.2,30.20,WSW,248,2.0,-999.0,62,0.00,,,0.00,Wunderground v.1.15,2013-11-10 05:35:00,
2013-11-10 00:40:00,49.7,37.2,30.20,WSW,248,2.0,-999.0,62,0.00,,,0.00,Wunderground v.1.15,2013-11-10 05:40:00,
2013-11-10 00:45:00,49.0,37.3,30.20,West,270,1.0,-999.0,64,0.00,,,0.00,Wunderground v.1.15,2013-11-10 05:45:00,
2013-11-10 00:50:00,49.0,37.3,30.20,West,270,1.0,-999.0,64,0.00,,,0.00,Wunderground v.1.15,2013-11-10 05:50:00,
2013-11-10 00:55:00,49.0,37.3,30.20,West,270,1.0,-999.0,64,0.00,,,0.00,Wunderground v.1.15,2013-11-10 05:55:00,
2013-11-10 01:00:00,49.0,37.3,30.20,West,270,1.0,-999.0,64,0.00,,,0.00,Wunderground v.1.15,2013-11-10 06:00:00,
2013-11-10 01:05:00,49.0,37.3,30.20,West,270,1.0,-999.0,64,0.00,,,0.00,Wunderground v.1.15,2013-11-10 06:05:00,
2013-11-10 01:10:00,49.0,37.3,30.20,West,270,1.0,-999.0,64,0.00,,,0.00,Wunderground v.1.15,2013-11-10 06:10:00,
2013-11-10 01:15:00,48.4,38.3,30.18,West,270,0.0,-999.0,68,0.00,,,0.00,Wunderground v.1.15,2013-11-10 06:15:00,
2013-11-10 01:20:00,48.4,38.3,30.18,West,270,0.0,-999.0,68,0.00,,,0.00,Wunderground v.1.15,2013-11-10 06:20:00,
2013-11-10 01:25:00,48.4,38.3,30.18,West,270,0.0,-999.0,68,0.00,,,0.00,Wunderground v.1.15,2013-11-10 06:25:00,
2013-11-10 01:30:00,48.4,38.3,30.18,West,270,0.0,-999.0,68,0.00,,,0.00,Wunderground v.1.15,2013-11-10 06:30:00,
2013-11-10 01:35:00,48.4,38.3,30.18,West,270,0.0,-999.0,68,0.00,,,0.00,Wunderground v.1.15,2013-11-10 06:35:00,
2013-11-10 01:40:00,48.4,38.3,30.18,West,270,0.0,-999.0,68,0.00,,,0.00,Wunderground v.1.15,2013-11-10 06:40:00,
2013-11-10 01:45:00,49.8,38.5,30.19,WSW,248,2.0,-999.0,65,0.00,,,0.00,Wunderground v.1.15,2013-11-10 06:45:00,
2013-11-10 01:50:00,49.8,38.5,30.19,WSW,248,2.0,-999.0,65,0.00,,,0.00,Wunderground v.1.15,2013-11-10 06:50:00,
2013-11-10 01:55:00,49.8,38.5,30.19,WSW,248,2.0,-999.0,65,0.00,,,0.00,Wunderground v.1.15,2013-11-10 06:55:00,
2013-11-10 02:00:00,49.8,38.5,30.19,WSW,248,2.0,-999.0,65,0.00,,,0.00,Wunderground v.1.15,2013-11-10 07:00:00,
2013-11-10 02:05:00,49.8,38.5,30.19,WSW,248,2.0,-999.0,65,0.00,,,0.00,Wunderground v.1.15,2013-11-10 07:05:00,
2013-11-10 02:10:00,49.8,38.5,30.19,WSW,248,2.0,-999.0,65,0.00,,,0.00,Wunderground v.1.15,2013-11-10 07:10:00,
2013-11-10 02:15:00,49.7,38.0,30.19,West,270,3.0,-999.0,64,0.00,,,0.00,Wunderground v.1.15,2013-11-10 07:15:00,
2013-11-10 02:20:00,49.7,38.0,30.19,West,270,3.0,-999.0,64,0.00,,,0.00,Wunderground v.1.15,2013-11-10 07:20:00,
2013-11-10 02:25:00,49.7,38.0,30.19,West,270,3.0,-999.0,64,0.00,,,0.00,Wunderground v.1.15,2013-11-10 07:25:00,
2013-11-10 02:30:00,49.7,38.0,30.19,West,270,3.0,-999.0,64,0.00,,,0.00,Wunderground v.1.15,2013-11-10 07:30:00,
2013-11-10 02:35:00,49.7,38.0,30.19,West,270,3.0,-999.0,64,0.00,,,0.00,Wunderground v.1.15,2013-11-10 07:35:00,
2013-11-10 02:40:00,49.7,38.0,30.19,West,270,3.0,-999.0,64,0.00,,,0.00,Wunderground v.1.15,2013-11-10 07:40:00,
2013-11-10 02:45:00,49.2,38.3,30.19,West,270,1.0,-999.0,66,0.00,,,0.00,Wunderground v.1.15,2013-11-10 07:45:00,
2013-11-10 02:50:00,49.2,38.3,30.19,West,270,1.0,-999.0,66,0.00,,,0.00,Wunderground v.1.15,2013-11-10 07:50:00,
2013-11-10 02:55:00,49.2,38.3,30.19,West,270,1.0,-999.0,66,0.00,,,0.00,Wunderground v.1.15,2013-11-10 07:55:00,
2013-11-10 03:00:00,49.2,38.3,30.19,West,270,1.0,-999.0,66,0.00,,,0.00,Wunderground v.1.15,2013-11-10 08:00:00,
2013-11-10 03:05:00,49.2,38.3,30.19,West,270,1.0,-999.0,66,0.00,,,0.00,Wunderground v.1.15,2013-11-10 08:05:00,
2013-11-10 03:10:00,49.2,38.3,30.19,West,270,1.0,-999.0,66,0.00,,,0.00,Wunderground v.1.15,2013-11-10 08:10:00,
2013-11-10 03:15:00,48.9,38.8,30.19,WSW,248,2.0,-999.0,68,0.00,,,0.00,Wunderground v.1.15,2013-11-10 08:15:00,
2013-11-10 03:20:00,48.9,38.8,30.19,WSW,248,2.0,-999.0,68,0.00,,,0.00,Wunderground v.1.15,2013-11-10 08:20:00,
2013-11-10 03:25:00,48.9,38.8,30.19,WSW,248,2.0,-999.0,68,0.00,,,0.00,Wunderground v.1.15,2013-11-10 08:25:00,
2013-11-10 03:30:00,48.9,38.8,30.19,WSW,248,2.0,-999.0,68,0.00,,,0.00,Wunderground v.1.15,2013-11-10 08:30:00,
2013-11-10 03:35:00,48.9,38.8,30.19,WSW,248,2.0,-999.0,68,0.00,,,0.00,Wunderground v.1.15,2013-11-10 08:35:00,
2013-11-10 03:40:00,48.9,38.8,30.19,WSW,248,2.0,-999.0,68,0.00,,,0.00,Wunderground v.1.15,2013-11-10 08:40:00,
2013-11-10 03:45:00,48.2,38.5,30.19,West,270,1.0,-999.0,69,0.00,,,0.00,Wunderground v.1.15,2013-11-10 08:45:00,
2013-11-10 03:50:00,48.2,38.5,30.19,West,270,1.0,-999.0,69,0.00,,,0.00,Wunderground v.1.15,2013-11-10 08:50:00,
2013-11-10 03:55:00,48.2,38.5,30.19,West,270,1.0,-999.0,69,0.00,,,0.00,Wunderground v.1.15,2013-11-10 08:55:00,
2013-11-10 04:00:00,48.2,38.5,30.19,West,270,1.0,-999.0,69,0.00,,,0.00,Wunderground v.1.15,2013-11-10 09:00:00,
2013-11-10 04:05:00,48.2,38.5,30.19,West,270,1.0,-999.0,69,0.00,,,0.00,Wunderground v.1.15,2013-11-10 09:05:00,
2013-11-10 04:10:00,48.2,38.5,30.19,West,270,1.0,-999.0,69,0.00,,,0.00,Wunderground v.1.15,2013-11-10 09:10:00,
2013-11-10 04:15:00,47.8,38.8,30.18,SW,225,1.0,-999.0,71,0.00,,,0.00,Wunderground v.1.15,2013-11-10 09:15:00,
2013-11-10 04:20:00,47.8,38.8,30.18,SW,225,1.0,-999.0,71,0.00,,,0.00,Wunderground v.1.15,2013-11-10 09:20:00,
2013-11-10 04:25:00,47.8,38.8,30.18,SW,225,1.0,-999.0,71,0.00,,,0.00,Wunderground v.1.15,2013-11-10 09:25:00,
2013-11-10 04:30:00,47.8,38.8,30.18,SW,225,1.0,-999.0,71,0.00,,,0.00,Wunderground v.1.15,2013-11-10 09:30:00,
2013-11-10 04:35:00,47.8,38.8,30.18,SW,225,1.0,-999.0,71,0.00,,,0.00,Wunderground v.1.15,2013-11-10 09:35:00,
2013-11-10 04:40:00,47.8,38.8,30.18,SW,225,1.0,-999.0,71,0.00,,,0.00,Wunderground v.1.15,2013-11-10 09:40:00,
2013-11-10 04:45:00,46.8,38.6,30.19,SW,225,0.0,-999.0,73,0.00,,,0.00,Wunderground v.1.15,2013-11-10 09:45:00,
2013-11-10 04:50:00,46.8,38.6,30.19,SW,225,0.0,-999.0,73,0.00,,,0.00,Wunderground v.1.15,2013-11-10 09:50:00,
2013-11-10 04:55:00,46.8,38.6,30.19,SW,225,0.0,-999.0,73,0.00,,,0.00,Wunderground v.1.15,2013-11-10 09:55:00,
2013-11-10 05:00:00,46.8,38.6,30.19,SW,225,0.0,-999.0,73,0.00,,,0.00,Wunderground v.1.15,2013-11-10 10:00:00,
2013-11-10 05:05:00,46.8,38.6,30.19,SW,225,0.0,-999.0,73,0.00,,,0.00,Wunderground v.1.15,2013-11-10 10:05:00,
2013-11-10 05:10:00,46.8,38.6,30.19,SW,225,0.0,-999.0,73,0.00,,,0.00,Wunderground v.1.15,2013-11-10 10:10:00,
2013-11-10 05:15:00,44.8,38.4,30.19,SW,225,0.0,-999.0,78,0.00,,,0.00,Wunderground v.1.15,2013-11-10 10:15:00,
2013-11-10 05:20:00,44.8,38.4,30.19,SW,225,0.0,-999.0,78,0.00,,,0.00,Wunderground v.1.15,2013-11-10 10:20:00,
2013-11-10 05:25:00,44.8,38.4,30.19,SW,225,0.0,-999.0,78,0.00,,,0.00,Wunderground v.1.15,2013-11-10 10:25:00,
2013-11-10 05:30:00,44.8,38.4,30.19,SW,225,0.0,-999.0,78,0.00,,,0.00,Wunderground v.1.15,2013-11-10 10:30:00,
2013-11-10 05:35:00,44.8,38.4,30.19,SW,225,0.0,-999.0,78,0.00,,,0.00,Wunderground v.1.15,2013-11-10 10:35:00,
2013-11-10 05:40:00,44.8,38.4,30.19,SW,225,0.0,-999.0,78,0.00,,,0.00,Wunderground v.1.15,2013-11-10 10:40:00,
2013-11-10 05:45:00,43.5,37.4,30.20,N/A,-737280,0.0,-999.0,79,0.00,,,0.00,Wunderground v.1.15,2013-11-10 10:45:00,
2013-11-10 05:50:00,43.5,37.4,30.20,N/A,-737280,0.0,-999.0,79,0.00,,,0.00,Wunderground v.1.15,2013-11-10 10:50:00,
2013-11-10 05:55:00,43.5,37.4,30.20,N/A,-737280,0.0,-999.0,79,0.00,,,0.00,Wunderground v.1.15,2013-11-10 10:55:00,
2013-11-10 06:00:00,43.5,37.4,30.20,N/A,-737280,0.0,-999.0,79,0.00,,,0.00,Wunderground v.1.15,2013-11-10 11:00:00,
2013-11-10 06:05:00,43.5,37.4,30.20,N/A,-737280,0.0,-999.0,79,0.00,,,0.00,Wunderground v.1.15,2013-11-10 11:05:00,
2013-11-10 06:10:00,43.5,37.4,30.20,N/A,-737280,0.0,-999.0,79,0.00,,,0.00,Wunderground v.1.15,2013-11-10 11:10:00,
2013-11-10 06:15:00,42.6,37.5,30.21,N/A,-737280,0.0,-999.0,82,0.00,,,0.00,Wunderground v.1.15,2013-11-10 11:15:00,
2013-11-10 06:20:00,42.6,37.5,30.21,N/A,-737280,0.0,-999.0,82,0.00,,,0.00,Wunderground v.1.15,2013-11-10 11:20:00,
2013-11-10 06:25:00,42.6,37.5,30.21,N/A,-737280,0.0,-999.0,82,0.00,,,0.00,Wunderground v.1.15,2013-11-10 11:25:00,
2013-11-10 06:30:00,42.6,37.5,30.21,N/A,-737280,0.0,-999.0,82,0.00,,,0.00,Wunderground v.1.15,2013-11-10 11:30:00,
2013-11-10 06:35:00,42.6,37.5,30.21,N/A,-737280,0.0,-999.0,82,0.00,,,0.00,Wunderground v.1.15,2013-11-10 11:35:00,
2013-11-10 06:40:00,42.6,37.5,30.21,N/A,-737280,0.0,-999.0,82,0.00,,,0.00,Wunderground v.1.15,2013-11-10 11:40:00,
2013-11-10 06:45:00,41.9,37.7,30.21,N/A,-737280,0.0,-999.0,85,0.00,,,0.00,Wunderground v.1.15,2013-11-10 11:45:00,
2013-11-10 06:50:00,41.9,37.7,30.21,N/A,-737280,0.0,-999.0,85,0.00,,,0.00,Wunderground v.1.15,2013-11-10 11:50:00,
2013-11-10 06:55:00,41.9,37.7,30.21,N/A,-737280,0.0,-999.0,85,0.00,,,0.00,Wunderground v.1.15,2013-11-10 11:55:00,
2013-11-10 07:00:00,41.9,37.7,30.21,N/A,-737280,0.0,-999.0,85,0.00,,,0.00,Wunderground v.1.15,2013-11-10 12:00:00,
2013-11-10 07:05:00,41.9,37.7,30.21,N/A,-737280,0.0,-999.0,85,0.00,,,0.00,Wunderground v.1.15,2013-11-10 12:05:00,
2013-11-10 07:10:00,41.9,37.7,30.21,N/A,-737280,0.0,-999.0,85,0.00,,,0.00,Wunderground v.1.15,2013-11-10 12:10:00,
2013-11-10 07:15:00,42.2,38.3,30.22,N/A,-737280,0.0,-999.0,86,0.00,,,0.00,Wunderground v.1.15,2013-11-10 12:15:00,
2013-11-10 07:20:00,42.2,38.3,30.22,N/A,-737280,0.0,-999.0,86,0.00,,,0.00,Wunderground v.1.15,2013-11-10 12:20:00,
2013-11-10 07:25:00,42.2,38.3,30.22,N/A,-737280,0.0,-999.0,86,0.00,,,0.00,Wunderground v.1.15,2013-11-10 12:25:00,
2013-11-10 07:30:00,42.2,38.3,30.22,N/A,-737280,0.0,-999.0,86,0.00,,,0.00,Wunderground v.1.15,2013-11-10 12:30:00,
2013-11-10 07:35:00,42.2,38.3,30.22,N/A,-737280,0.0,-999.0,86,0.00,,,0.00,Wunderground v.1.15,2013-11-10 12:35:00,
2013-11-10 07:40:00,42.2,38.3,30.22,N/A,-737280,0.0,-999.0,86,0.00,,,0.00,Wunderground v.1.15,2013-11-10 12:40:00,
2013-11-10 07:45:00,43.0,39.7,30.23,N/A,-737280,0.0,-999.0,88,0.00,,,0.00,Wunderground v.1.15,2013-11-10 12:45:00,
2013-11-10 07:50:00,43.0,39.7,30.23,N/A,-737280,0.0,-999.0,88,0.00,,,0.00,Wunderground v.1.15,2013-11-10 12:50:00,
2013-11-10 07:55:00,43.0,39.7,30.23,N/A,-737280,0.0,-999.0,88,0.00,,,0.00,Wunderground v.1.15,2013-11-10 12:55:00,
2013-11-10 08:00:00,43.0,39.7,30.23,N/A,-737280,0.0,-999.0,88,0.00,,,0.00,Wunderground v.1.15,2013-11-10 13:00:00,
2013-11-10 08:05:00,43.0,39.7,30.23,N/A,-737280,0.0,-999.0,88,0.00,,,0.00,Wunderground v.1.15,2013-11-10 13:05:00,
2013-11-10 08:10:00,43.0,39.7,30.23,N/A,-737280,0.0,-999.0,88,0.00,,,0.00,Wunderground v.1.15,2013-11-10 13:10:00,
2013-11-10 08:15:00,46.8,41.3,30.23,SW,225,0.0,-999.0,81,0.00,,,0.00,Wunderground v.1.15,2013-11-10 13:15:00,
2013-11-10 08:20:00,46.8,41.3,30.23,SW,225,0.0,-999.0,81,0.00,,,0.00,Wunderground v.1.15,2013-11-10 13:20:00,
2013-11-10 08:25:00,46.8,41.3,30.23,SW,225,0.0,-999.0,81,0.00,,,0.00,Wunderground v.1.15,2013-11-10 13:25:00,
2013-11-10 08:30:00,46.8,41.3,30.23,SW,225,0.0,-999.0,81,0.00,,,0.00,Wunderground v.1.15,2013-11-10 13:30:00,
2013-11-10 08:35:00,46.8,41.3,30.23,SW,225,0.0,-999.0,81,0.00,,,0.00,Wunderground v.1.15,2013-11-10 13:35:00,
2013-11-10 08:40:00,46.8,41.3,30.23,SW,225,0.0,-999.0,81,0.00,,,0.00,Wunderground v.1.15,2013-11-10 13:40:00,
2013-11-10 08:45:00,50.8,42.1,30.22,SW,225,0.0,-999.0,72,0.00,,,0.00,Wunderground v.1.15,2013-11-10 13:45:00,
2013-11-10 08:50:00,50.8,42.1,30.22,SW,225,0.0,-999.0,72,0.00,,,0.00,Wunderground v.1.15,2013-11-10 13:50:00,
2013-11-10 08:55:00,50.8,42.1,30.22,SW,225,0.0,-999.0,72,0.00,,,0.00,Wunderground v.1.15,2013-11-10 13:55:00,
2013-11-10 09:00:00,50.8,42.1,30.22,SW,225,0.0,-999.0,72,0.00,,,0.00,Wunderground v.1.15,2013-11-10 14:00:00,
2013-11-10 09:05:00,50.8,42.1,30.22,SW,225,0.0,-999.0,72,0.00,,,0.00,Wunderground v.1.15,2013-11-10 14:05:00,
2013-11-10 09:10:00,50.8,42.1,30.22,SW,225,0.0,-999.0,72,0.00,,,0.00,Wunderground v.1.15,2013-11-10 14:10:00,
2013-11-10 09:15:00,54.7,41.9,30.22,SW,225,1.0,-999.0,62,0.00,,,0.00,Wunderground v.1.15,2013-11-10 14:15:00,
2013-11-10 09:20:00,54.7,41.9,30.22,SW,225,1.0,-999.0,62,0.00,,,0.00,Wunderground v.1.15,2013-11-10 14:20:00,
2013-11-10 09:25:00,54.7,41.9,30.22,SW,225,1.0,-999.0,62,0.00,,,0.00,Wunderground v.1.15,2013-11-10 14:25:00,
2013-11-10 09:30:00,54.7,41.9,30.22,SW,225,1.0,-999.0,62,0.00,,,0.00,Wunderground v.1.15,2013-11-10 14:30:00,
2013-11-10 09:35:00,54.7,41.9,30.22,SW,225,1.0,-999.0,62,0.00,,,0.00,Wunderground v.1.15,2013-11-10 14:35:00,
2013-11-10 09:40:00,54.7,41.9,30.22,SW,225,1.0,-999.0,62,0.00,,,0.00,Wunderground v.1.15,2013-11-10 14:40:00,
2013-11-10 09:45:00,56.3,42.1,30.23,SW,225,2.0,-999.0,59,0.00,,,0.00,Wunderground v.1.15,2013-11-10 14:45:00,
2013-11-10 09:50:00,56.3,42.1,30.23,SW,225,2.0,-999.0,59,0.00,,,0.00,Wunderground v.1.15,2013-11-10 14:50:00,
2013-11-10 09:55:00,56.3,42.1,30.23,SW,225,2.0,-999.0,59,0.00,,,0.00,Wunderground v.1.15,2013-11-10 14:55:00,
2013-11-10 10:00:00,56.3,42.1,30.23,SW,225,2.0,-999.0,59,0.00,,,0.00,Wunderground v.1.15,2013-11-10 15:00:00,
2013-11-10 10:05:00,56.3,42.1,30.23,SW,225,2.0,-999.0,59,0.00,,,0.00,Wunderground v.1.15,2013-11-10 15:05:00,
2013-11-10 10:10:00,56.3,42.1,30.23,SW,225,2.0,-999.0,59,0.00,,,0.00,Wunderground v.1.15,2013-11-10 15:10:00,
2013-11-10 10:15:00,59.2,42.1,30.22,WSW,248,1.0,-999.0,53,0.00,,,0.00,Wunderground v.1.15,2013-11-10 15:15:00,
2013-11-10 10:20:00,59.2,42.1,30.22,WSW,248,1.0,-999.0,53,0.00,,,0.00,Wunderground v.1.15,2013-11-10 15:20:00,
2013-11-10 10:25:00,59.2,42.1,30.22,WSW,248,1.0,-999.0,53,0.00,,,0.00,Wunderground v.1.15,2013-11-10 15:25:00,
2013-11-10 10:30:00,59.2,42.1,30.22,WSW,248,1.0,-999.0,53,0.00,,,0.00,Wunderground v.1.15,2013-11-10 15:30:00,
2013-11-10 10:35:00,59.2,42.1,30.22,WSW,248,1.0,-999.0,53,0.00,,,0.00,Wunderground v.1.15,2013-11-10 15:35:00,
2013-11-10 10:40:00,59.2,42.1,30.22,WSW,248,1.0,-999.0,53,0.00,,,0.00,Wunderground v.1.15,2013-11-10 15:40:00,
2013-11-10 10:45:00,59.9,46.0,30.21,West,270,1.0,-999.0,60,0.00,,,0.00,Wunderground v.1.15,2013-11-10 15:45:00,
2013-11-10 10:50:00,59.9,46.0,30.21,West,270,1.0,-999.0,60,0.00,,,0.00,Wunderground v.1.15,2013-11-10 15:50:00,
2013-11-10 10:55:00,59.9,46.0,30.21,West,270,1.0,-999.0,60,0.00,,,0.00,Wunderground v.1.15,2013-11-10 15:55:00,
2013-11-10 11:00:00,59.9,46.0,30.21,West,270,1.0,-999.0,60,0.00,,,0.00,Wunderground v.1.15,2013-11-10 16:00:00,
2013-11-10 11:05:00,59.9,46.0,30.21,West,270,1.0,-999.0,60,0.00,,,0.00,Wunderground v.1.15,2013-11-10 16:05:00,
2013-11-10 11:10:00,59.9,46.0,30.21,West,270,1.0,-999.0,60,0.00,,,0.00,Wunderground v.1.15,2013-11-10 16:10:00,
2013-11-10 11:15:00,61.9,45.5,30.20,WNW,293,1.0,-999.0,55,0.00,,,0.00,Wunderground v.1.15,2013-11-10 16:15:00,
2013-11-10 11:20:00,61.9,45.5,30.20,WNW,293,1.0,-999.0,55,0.00,,,0.00,Wunderground v.1.15,2013-11-10 16:20:00,
2013-11-10 11:25:00,61.9,45.5,30.20,WNW,293,1.0,-999.0,55,0.00,,,0.00,Wunderground v.1.15,2013-11-10 16:25:00,
2013-11-10 11:30:00,61.9,45.5,30.20,WNW,293,1.0,-999.0,55,0.00,,,0.00,Wunderground v.1.15,2013-11-10 16:30:00,
2013-11-10 11:35:00,61.9,45.5,30.20,WNW,293,1.0,-999.0,55,0.00,,,0.00,Wunderground v.1.15,2013-11-10 16:35:00,
2013-11-10 11:40:00,61.9,45.5,30.20,WNW,293,1.0,-999.0,55,0.00,,,0.00,Wunderground v.1.15,2013-11-10 16:40:00,
2013-11-10 11:45:00,63.9,46.4,30.18,WSW,248,1.0,-999.0,53,0.00,,,0.00,Wunderground v.1.15,2013-11-10 16:45:00,
2013-11-10 11:50:00,63.9,46.4,30.18,WSW,248,1.0,-999.0,53,0.00,,,0.00,Wunderground v.1.15,2013-11-10 16:50:00,
2013-11-10 11:55:00,63.9,46.4,30.18,WSW,248,1.0,-999.0,53,0.00,,,0.00,Wunderground v.1.15,2013-11-10 16:55:00,
2013-11-10 12:00:00,63.9,46.4,30.18,WSW,248,1.0,-999.0,53,0.00,,,0.00,Wunderground v.1.15,2013-11-10 17:00:00,
2013-11-10 12:05:00,63.9,46.4,30.18,WSW,248,1.0,-999.0,53,0.00,,,0.00,Wunderground v.1.15,2013-11-10 17:05:00,
2013-11-10 12:10:00,63.9,46.4,30.18,WSW,248,1.0,-999.0,53,0.00,,,0.00,Wunderground v.1.15,2013-11-10 17:10:00,
2013-11-10 12:15:00,67.6,46.1,30.16,North,0,0.0,-999.0,46,0.00,,,0.00,Wunderground v.1.15,2013-11-10 17:15:00,
2013-11-10 12:20:00,67.6,46.1,30.16,North,0,0.0,-999.0,46,0.00,,,0.00,Wunderground v.1.15,2013-11-10 17:20:00,
2013-11-10 12:25:00,67.6,46.1,30.16,North,0,0.0,-999.0,46,0.00,,,0.00,Wunderground v.1.15,2013-11-10 17:25:00,
2013-11-10 12:30:00,67.6,46.1,30.16,North,0,0.0,-999.0,46,0.00,,,0.00,Wunderground v.1.15,2013-11-10 17:30:00,
2013-11-10 12:35:00,67.6,46.1,30.16,North,0,0.0,-999.0,46,0.00,,,0.00,Wunderground v.1.15,2013-11-10 17:35:00,
2013-11-10 12:40:00,67.6,46.1,30.16,North,0,0.0,-999.0,46,0.00,,,0.00,Wunderground v.1.15,2013-11-10 17:40:00,
2013-11-10 12:45:00,70.1,41.2,30.15,SW,225,3.0,-999.0,35,0.00,,,0.00,Wunderground v.1.15,2013-11-10 17:45:00,
2013-11-10 12:50:00,70.1,41.2,30.15,SW,225,3.0,-999.0,35,0.00,,,0.00,Wunderground v.1.15,2013-11-10 17:50:00,
2013-11-10 12:55:00,70.1,41.2,30.15,SW,225,3.0,-999.0,35,0.00,,,0.00,Wunderground v.1.15,2013-11-10 17:55:00,
2013-11-10 13:00:00,70.1,41.2,30.15,SW,225,3.0,-999.0,35,0.00,,,0.00,Wunderground v.1.15,2013-11-10 18:00:00,
2013-11-10 13:05:00,70.1,41.2,30.15,SW,225,3.0,-999.0,35,0.00,,,0.00,Wunderground v.1.15,2013-11-10 18:05:00,
2013-11-10 13:10:00,70.1,41.2,30.15,SW,225,3.0,-999.0,35,0.00,,,0.00,Wunderground v.1.15,2013-11-10 18:10:00,
2013-11-10 13:15:00,69.5,40.6,30.14,WSW,248,3.0,-999.0,35,0.00,,,0.00,Wunderground v.1.15,2013-11-10 18:15:00,
2013-11-10 13:20:00,69.5,40.6,30.14,WSW,248,3.0,-999.0,35,0.00,,,0.00,Wunderground v.1.15,2013-11-10 18:20:00,
2013-11-10 13:25:00,69.5,40.6,30.14,WSW,248,3.0,-999.0,35,0.00,,,0.00,Wunderground v.1.15,2013-11-10 18:25:00,
2013-11-10 13:30:00,69.5,40.6,30.14,WSW,248,3.0,-999.0,35,0.00,,,0.00,Wunderground v.1.15,2013-11-10 18:30:00,
2013-11-10 13:35:00,69.5,40.6,30.14,WSW,248,3.0,-999.0,35,0.00,,,0.00,Wunderground v.1.15,2013-11-10 18:35:00,
2013-11-10 13:40:00,69.5,40.6,30.14,WSW,248,3.0,-999.0,35,0.00,,,0.00,Wunderground v.1.15,2013-11-10 18:40:00,
2013-11-10 13:45:00,69.0,40.9,30.13,WSW,248,3.0,-999.0,36,0.00,,,0.00,Wunderground v.1.15,2013-11-10 18:45:00,
2013-11-10 13:50:00,69.0,40.9,30.13,WSW,248,3.0,-999.0,36,0.00,,,0.00,Wunderground v.1.15,2013-11-10 18:50:00,
2013-11-10 13:55:00,69.0,40.9,30.13,WSW,248,3.0,-999.0,36,0.00,,,0.00,Wunderground v.1.15,2013-11-10 18:55:00,
2013-11-10 14:00:00,69.0,40.9,30.13,WSW,248,3.0,-999.0,36,0.00,,,0.00,Wunderground v.1.15,2013-11-10 19:00:00,
2013-11-10 14:05:00,69.0,40.9,30.13,WSW,248,3.0,-999.0,36,0.00,,,0.00,Wunderground v.1.15,2013-11-10 19:05:00,
2013-11-10 14:10:00,69.0,40.9,30.13,WSW,248,3.0,-999.0,36,0.00,,,0.00,Wunderground v.1.15,2013-11-10 19:10:00,
2013-11-10 14:15:00,69.6,40.7,30.12,WSW,248,3.0,-999.0,35,0.00,,,0.00,Wunderground v.1.15,2013-11-10 19:15:00,
2013-11-10 14:20:00,69.6,40.7,30.12,WSW,248,3.0,-999.0,35,0.00,,,0.00,Wunderground v.1.15,2013-11-10 19:20:00,
2013-11-10 14:25:00,69.6,40.7,30.12,WSW,248,3.0,-999.0,35,0.00,,,0.00,Wunderground v.1.15,2013-11-10 19:25:00,
2013-11-10 14:30:00,69.6,40.7,30.12,WSW,248,3.0,-999.0,35,0.00,,,0.00,Wunderground v.1.15,2013-11-10 19:30:00,
2013-11-10 14:35:00,69.6,40.7,30.12,WSW,248,3.0,-999.0,35,0.00,,,0.00,Wunderground v.1.15,2013-11-10 19:35:00,
2013-11-10 14:40:00,69.6,40.7,30.12,WSW,248,3.0,-999.0,35,0.00,,,0.00,Wunderground v.1.15,2013-11-10 19:40:00,
2013-11-10 14:45:00,70.0,38.0,30.11,WSW,248,3.0,-999.0,31,0.00,,,0.00,Wunderground v.1.15,2013-11-10 19:45:00,
2013-11-10 14:50:00,70.0,38.0,30.11,WSW,248,3.0,-999.0,31,0.00,,,0.00,Wunderground v.1.15,2013-11-10 19:50:00,
2013-11-10 14:55:00,70.0,38.0,30.11,WSW,248,3.0,-999.0,31,0.00,,,0.00,Wunderground v.1.15,2013-11-10 19:55:00,
2013-11-10 15:00:00,70.0,38.0,30.11,WSW,248,3.0,-999.0,31,0.00,,,0.00,Wunderground v.1.15,2013-11-10 20:00:00,
2013-11-10 15:05:00,70.0,38.0,30.11,WSW,248,3.0,-999.0,31,0.00,,,0.00,Wunderground v.1.15,2013-11-10 20:05:00,
2013-11-10 15:10:00,70.0,38.0,30.11,WSW,248,3.0,-999.0,31,0.00,,,0.00,Wunderground v.1.15,2013-11-10 20:10:00,
2013-11-10 15:15:00,70.3,39.0,30.11,SW,225,2.0,-999.0,32,0.00,,,0.00,Wunderground v.1.15,2013-11-10 20:15:00,
2013-11-10 15:20:00,70.3,39.0,30.11,SW,225,2.0,-999.0,32,0.00,,,0.00,Wunderground v.1.15,2013-11-10 20:20:00,
2013-11-10 15:25:00,70.3,39.0,30.11,SW,225,2.0,-999.0,32,0.00,,,0.00,Wunderground v.1.15,2013-11-10 20:25:00,
2013-11-10 15:30:00,70.3,39.0,30.11,SW,225,2.0,-999.0,32,0.00,,,0.00,Wunderground v.1.15,2013-11-10 20:30:00,
2013-11-10 15:35:00,70.3,39.0,30.11,SW,225,2.0,-999.0,32,0.00,,,0.00,Wunderground v.1.15,2013-11-10 20:35:00,
2013-11-10 15:40:00,70.3,39.0,30.11,SW,225,2.0,-999.0,32,0.00,,,0.00,Wunderground v.1.15,2013-11-10 20:40:00,
2013-11-10 15:50:00,70.5,39.2,30.11,SW,225,2.0,-999.0,32,0.00,,,0.00,Wunderground v.1.15,2013-11-10 20:50:00,
2013-11-10 15:55:00,70.5,39.2,30.11,SW,225,2.0,-999.0,32,0.00,,,0.00,Wunderground v.1.15,2013-11-10 20:55:00,
2013-11-10 16:00:00,70.5,39.2,30.11,SW,225,2.0,-999.0,32,0.00,,,0.00,Wunderground v.1.15,2013-11-10 21:00:00,
2013-11-10 16:05:00,70.5,39.2,30.11,SW,225,2.0,-999.0,32,0.00,,,0.00,Wunderground v.1.15,2013-11-10 21:05:00,
2013-11-10 16:10:00,70.5,39.2,30.11,SW,225,2.0,-999.0,32,0.00,,,0.00,Wunderground v.1.15,2013-11-10 21:10:00,
2013-11-10 16:15:00,71.1,38.9,30.11,SW,225,1.0,-999.0,31,0.00,,,0.00,Wunderground v.1.15,2013-11-10 21:15:00,
2013-11-10 16:20:00,71.1,38.9,30.11,SW,225,1.0,-999.0,31,0.00,,,0.00,Wunderground v.1.15,2013-11-10 21:20:00,
2013-11-10 16:25:00,71.1,38.9,30.11,SW,225,1.0,-999.0,31,0.00,,,0.00,Wunderground v.1.15,2013-11-10 21:25:00,
2013-11-10 16:30:00,71.1,38.9,30.11,SW,225,1.0,-999.0,31,0.00,,,0.00,Wunderground v.1.15,2013-11-10 21:30:00,
2013-11-10 16:35:00,71.1,38.9,30.11,SW,225,1.0,-999.0,31,0.00,,,0.00,Wunderground v.1.15,2013-11-10 21:35:00,
2013-11-10 16:40:00,71.1,38.9,30.11,SW,225,1.0,-999.0,31,0.00,,,0.00,Wunderground v.1.15,2013-11-10 21:40:00,
2013-11-10 16:45:00,70.3,37.4,30.12,WSW,248,2.0,-999.0,30,0.00,,,0.00,Wunderground v.1.15,2013-11-10 21:45:00,
2013-11-10 16:50:00,70.3,37.4,30.12,WSW,248,2.0,-999.0,30,0.00,,,0.00,Wunderground v.1.15,2013-11-10 21:50:00,
2013-11-10 16:55:00,70.3,37.4,30.12,WSW,248,2.0,-999.0,30,0.00,,,0.00,Wunderground v.1.15,2013-11-10 21:55:00,
2013-11-10 17:00:00,70.3,37.4,30.12,WSW,248,2.0,-999.0,30,0.00,,,0.00,Wunderground v.1.15,2013-11-10 22:00:00,
2013-11-10 17:05:00,70.3,37.4,30.12,WSW,248,2.0,-999.0,30,0.00,,,0.00,Wunderground v.1.15,2013-11-10 22:05:00,
2013-11-10 17:10:00,70.3,37.4,30.12,WSW,248,2.0,-999.0,30,0.00,,,0.00,Wunderground v.1.15,2013-11-10 22:10:00,
2013-11-10 17:15:00,66.3,37.1,30.14,SW,225,0.0,-999.0,34,0.00,,,0.00,Wunderground v.1.15,2013-11-10 22:15:00,
2013-11-10 17:20:00,66.3,37.1,30.14,SW,225,0.0,-999.0,34,0.00,,,0.00,Wunderground v.1.15,2013-11-10 22:20:00,
2013-11-10 17:25:00,66.3,37.1,30.14,SW,225,0.0,-999.0,34,0.00,,,0.00,Wunderground v.1.15,2013-11-10 22:25:00,
2013-11-10 17:30:00,66.3,37.1,30.14,SW,225,0.0,-999.0,34,0.00,,,0.00,Wunderground v.1.15,2013-11-10 22:30:00,
2013-11-10 17:35:00,66.3,37.1,30.14,SW,225,0.0,-999.0,34,0.00,,,0.00,Wunderground v.1.15,2013-11-10 22:35:00,
2013-11-10 17:40:00,66.3,37.1,30.14,SW,225,0.0,-999.0,34,0.00,,,0.00,Wunderground v.1.15,2013-11-10 22:40:00,
2013-11-10 17:45:00,63.2,36.5,30.15,SSW,203,0.0,-999.0,37,0.00,,,0.00,Wunderground v.1.15,2013-11-10 22:45:00,
2013-11-10 17:50:00,63.2,36.5,30.15,SSW,203,0.0,-999.0,37,0.00,,,0.00,Wunderground v.1.15,2013-11-10 22:50:00,
2013-11-10 17:55:00,63.2,36.5,30.15,SSW,203,0.0,-999.0,37,0.00,,,0.00,Wunderground v.1.15,2013-11-10 22:55:00,
2013-11-10 18:00:00,63.2,36.5,30.15,SSW,203,0.0,-999.0,37,0.00,,,0.00,Wunderground v.1.15,2013-11-10 23:00:00,
2013-11-10 18:05:00,63.2,36.5,30.15,SSW,203,0.0,-999.0,37,0.00,,,0.00,Wunderground v.1.15,2013-11-10 23:05:00,
2013-11-10 18:10:00,63.2,36.5,30.15,SSW,203,0.0,-999.0,37,0.00,,,0.00,Wunderground v.1.15,2013-11-10 23:10:00,
2013-11-10 18:15:00,61.2,36.7,30.16,SSW,203,0.0,-999.0,40,0.00,,,0.00,Wunderground v.1.15,2013-11-10 23:15:00,
2013-11-10 18:20:00,61.2,36.7,30.16,SSW,203,0.0,-999.0,40,0.00,,,0.00,Wunderground v.1.15,2013-11-10 23:20:00,
2013-11-10 18:25:00,61.2,36.7,30.16,SSW,203,0.0,-999.0,40,0.00,,,0.00,Wunderground v.1.15,2013-11-10 23:25:00,
2013-11-10 18:30:00,61.2,36.7,30.16,SSW,203,0.0,-999.0,40,0.00,,,0.00,Wunderground v.1.15,2013-11-10 23:30:00,
2013-11-10 18:35:00,61.2,36.7,30.16,SSW,203,0.0,-999.0,40,0.00,,,0.00,Wunderground v.1.15,2013-11-10 23:35:00,
2013-11-10 18:40:00,61.2,36.7,30.16,SSW,203,0.0,-999.0,40,0.00,,,0.00,Wunderground v.1.15,2013-11-10 23:40:00,
2013-11-10 18:45:00,59.4,36.3,30.17,SW,225,0.0,-999.0,42,0.00,,,0.00,Wunderground v.1.15,2013-11-10 23:45:00,
2013-11-10 18:50:00,59.4,36.3,30.17,SW,225,0.0,-999.0,42,0.00,,,0.00,Wunderground v.1.15,2013-11-10 23:50:00,
2013-11-10 18:55:00,59.4,36.3,30.17,SW,225,0.0,-999.0,42,0.00,,,0.00,Wunderground v.1.15,2013-11-10 23:55:00,
2013-11-10 19:00:00,59.4,36.3,30.17,SW,225,0.0,-999.0,42,0.00,,,0.00,Wunderground v.1.15,2013-11-11 00:00:00,
2013-11-10 19:05:00,59.4,36.3,30.17,SW,225,0.0,-999.0,42,0.00,,,0.00,Wunderground v.1.15,2013-11-11 00:05:00,
2013-11-10 19:10:00,59.4,36.3,30.17,SW,225,0.0,-999.0,42,0.00,,,0.00,Wunderground v.1.15,2013-11-11 00:10:00,
2013-11-10 19:15:00,59.5,35.1,30.18,ESE,113,1.0,-999.0,40,0.00,,,0.00,Wunderground v.1.15,2013-11-11 00:15:00,
2013-11-10 19:20:00,59.5,35.1,30.18,ESE,113,1.0,-999.0,40,0.00,,,0.00,Wunderground v.1.15,2013-11-11 00:20:00,
2013-11-10 19:25:00,59.5,35.1,30.18,ESE,113,1.0,-999.0,40,0.00,,,0.00,Wunderground v.1.15,2013-11-11 00:25:00,
2013-11-10 19:30:00,59.5,35.1,30.18,ESE,113,1.0,-999.0,40,0.00,,,0.00,Wunderground v.1.15,2013-11-11 00:30:00,
2013-11-10 19:35:00,59.5,35.1,30.18,ESE,113,1.0,-999.0,40,0.00,,,0.00,Wunderground v.1.15,2013-11-11 00:35:00,
2013-11-10 19:40:00,59.5,35.1,30.18,ESE,113,1.0,-999.0,40,0.00,,,0.00,Wunderground v.1.15,2013-11-11 00:40:00,
2013-11-10 19:45:00,58.8,36.3,30.19,SSE,158,0.0,-999.0,43,0.00,,,0.00,Wunderground v.1.15,2013-11-11 00:45:00,
2013-11-10 19:50:00,58.8,36.3,30.19,SSE,158,0.0,-999.0,43,0.00,,,0.00,Wunderground v.1.15,2013-11-11 00:50:00,
2013-11-10 19:55:00,58.8,36.3,30.19,SSE,158,0.0,-999.0,43,0.00,,,0.00,Wunderground v.1.15,2013-11-11 00:55:00,
2013-11-10 20:00:00,58.8,36.3,30.19,SSE,158,0.0,-999.0,43,0.00,,,0.00,Wunderground v.1.15,2013-11-11 01:00:00,
2013-11-10 20:05:00,58.8,36.3,30.19,SSE,158,0.0,-999.0,43,0.00,,,0.00,Wunderground v.1.15,2013-11-11 01:05:00,
2013-11-10 20:10:00,58.8,36.3,30.19,SSE,158,0.0,-999.0,43,0.00,,,0.00,Wunderground v.1.15,2013-11-11 01:10:00,
2013-11-10 20:15:00,58.5,37.2,30.19,SSE,158,1.0,-999.0,45,0.00,,,0.00,Wunderground v.1.15,2013-11-11 01:15:00,
2013-11-10 20:20:00,58.5,37.2,30.19,SSE,158,1.0,-999.0,45,0.00,,,0.00,Wunderground v.1.15,2013-11-11 01:20:00,
2013-11-10 20:25:00,58.5,37.2,30.19,SSE,158,1.0,-999.0,45,0.00,,,0.00,Wunderground v.1.15,2013-11-11 01:25:00,
2013-11-10 20:30:00,58.5,37.2,30.19,SSE,158,1.0,-999.0,45,0.00,,,0.00,Wunderground v.1.15,2013-11-11 01:30:00,
2013-11-10 20:35:00,58.5,37.2,30.19,SSE,158,1.0,-999.0,45,0.00,,,0.00,Wunderground v.1.15,2013-11-11 01:35:00,
2013-11-10 20:40:00,58.5,37.2,30.19,SSE,158,1.0,-999.0,45,0.00,,,0.00,Wunderground v.1.15,2013-11-11 01:40:00,
2013-11-10 20:45:00,56.8,36.8,30.20,ESE,113,0.0,-999.0,47,0.00,,,0.00,Wunderground v.1.15,2013-11-11 01:45:00,
2013-11-10 20:50:00,56.8,36.8,30.20,ESE,113,0.0,-999.0,47,0.00,,,0.00,Wunderground v.1.15,2013-11-11 01:50:00,
2013-11-10 20:55:00,56.8,36.8,30.20,ESE,113,0.0,-999.0,47,0.00,,,0.00,Wunderground v.1.15,2013-11-11 01:55:00,
2013-11-10 21:00:00,56.8,36.8,30.20,ESE,113,0.0,-999.0,47,0.00,,,0.00,Wunderground v.1.15,2013-11-11 02:00:00,
2013-11-10 21:05:00,56.8,36.8,30.20,ESE,113,0.0,-999.0,47,0.00,,,0.00,Wunderground v.1.15,2013-11-11 02:05:00,
2013-11-10 21:10:00,56.8,36.8,30.20,ESE,113,0.0,-999.0,47,0.00,,,0.00,Wunderground v.1.15,2013-11-11 02:10:00,
2013-11-10 21:15:00,56.2,36.8,30.20,SSE,158,0.0,-999.0,48,0.00,,,0.00,Wunderground v.1.15,2013-11-11 02:15:00,
2013-11-10 21:20:00,56.2,36.8,30.20,SSE,158,0.0,-999.0,48,0.00,,,0.00,Wunderground v.1.15,2013-11-11 02:20:00,
2013-11-10 21:25:00,56.2,36.8,30.20,SSE,158,0.0,-999.0,48,0.00,,,0.00,Wunderground v.1.15,2013-11-11 02:25:00,
2013-11-10 21:30:00,56.2,36.8,30.20,SSE,158,0.0,-999.0,48,0.00,,,0.00,Wunderground v.1.15,2013-11-11 02:30:00,
2013-11-10 21:35:00,56.2,36.8,30.20,SSE,158,0.0,-999.0,48,0.00,,,0.00,Wunderground v.1.15,2013-11-11 02:35:00,
2013-11-10 21:40:00,56.2,36.8,30.20,SSE,158,0.0,-999.0,48,0.00,,,0.00,Wunderground v.1.15,2013-11-11 02:40:00,
2013-11-10 21:45:00,54.8,36.5,30.21,SE,135,0.0,-999.0,50,0.00,,,0.00,Wunderground v.1.15,2013-11-11 02:45:00,
2013-11-10 21:50:00,54.8,36.5,30.21,SE,135,0.0,-999.0,50,0.00,,,0.00,Wunderground v.1.15,2013-11-11 02:50:00,
2013-11-10 21:55:00,54.8,36.5,30.21,SE,135,0.0,-999.0,50,0.00,,,0.00,Wunderground v.1.15,2013-11-11 02:55:00,
2013-11-10 22:00:00,54.8,36.5,30.21,SE,135,0.0,-999.0,50,0.00,,,0.00,Wunderground v.1.15,2013-11-11 03:00:00,
2013-11-10 22:05:00,54.8,36.5,30.21,SE,135,0.0,-999.0,50,0.00,,,0.00,Wunderground v.1.15,2013-11-11 03:05:00,
2013-11-10 22:10:00,54.8,36.5,30.21,SE,135,0.0,-999.0,50,0.00,,,0.00,Wunderground v.1.15,2013-11-11 03:10:00,
2013-11-10 22:15:00,53.4,35.7,30.22,SE,135,0.0,-999.0,51,0.00,,,0.00,Wunderground v.1.15,2013-11-11 03:15:00,
2013-11-10 22:20:00,53.4,35.7,30.22,SE,135,0.0,-999.0,51,0.00,,,0.00,Wunderground v.1.15,2013-11-11 03:20:00,
2013-11-10 22:25:00,53.4,35.7,30.22,SE,135,0.0,-999.0,51,0.00,,,0.00,Wunderground v.1.15,2013-11-11 03:25:00,
2013-11-10 22:30:00,53.4,35.7,30.22,SE,135,0.0,-999.0,51,0.00,,,0.00,Wunderground v.1.15,2013-11-11 03:30:00,
2013-11-10 22:35:00,53.4,35.7,30.22,SE,135,0.0,-999.0,51,0.00,,,0.00,Wunderground v.1.15,2013-11-11 03:35:00,
2013-11-10 22:40:00,53.4,35.7,30.22,SE,135,0.0,-999.0,51,0.00,,,0.00,Wunderground v.1.15,2013-11-11 03:40:00,
2013-11-10 22:45:00,53.0,33.8,30.23,NE,45,0.0,-999.0,48,0.00,,,0.00,Wunderground v.1.15,2013-11-11 03:45:00,
2013-11-10 22:50:00,53.0,33.8,30.23,NE,45,0.0,-999.0,48,0.00,,,0.00,Wunderground v.1.15,2013-11-11 03:50:00,
2013-11-10 22:55:00,53.0,33.8,30.23,NE,45,0.0,-999.0,48,0.00,,,0.00,Wunderground v.1.15,2013-11-11 03:55:00,
2013-11-10 23:00:00,53.0,33.8,30.23,NE,45,0.0,-999.0,48,0.00,,,0.00,Wunderground v.1.15,2013-11-11 04:00:00,
2013-11-10 23:05:00,53.0,33.8,30.23,NE,45,0.0,-999.0,48,0.00,,,0.00,Wunderground v.1.15,2013-11-11 04:05:00,
2013-11-10 23:10:00,53.0,33.8,30.23,NE,45,0.0,-999.0,48,0.00,,,0.00,Wunderground v.1.15,2013-11-11 04:10:00,
2013-11-10 23:15:00,52.5,31.2,30.24,NNW,338,1.0,-999.0,44,0.00,,,0.00,Wunderground v.1.15,2013-11-11 04:15:00,
2013-11-10 23:20:00,52.5,31.2,30.24,NNW,338,1.0,-999.0,44,0.00,,,0.00,Wunderground v.1.15,2013-11-11 04:20:00,
2013-11-10 23:25:00,52.5,31.2,30.24,NNW,338,1.0,-999.0,44,0.00,,,0.00,Wunderground v.1.15,2013-11-11 04:25:00,
2013-11-10 23:30:00,52.5,31.2,30.24,NNW,338,1.0,-999.0,44,0.00,,,0.00,Wunderground v.1.15,2013-11-11 04:30:00,
2013-11-10 23:35:00,52.5,31.2,30.24,NNW,338,1.0,-999.0,44,0.00,,,0.00,Wunderground v.1.15,2013-11-11 04:35:00,
2013-11-10 23:40:00,52.5,31.2,30.24,NNW,338,1.0,-999.0,44,0.00,,,0.00,Wunderground v.1.15,2013-11-11 04:40:00,
2013-11-10 23:45:00,51.2,30.6,30.24,NE,45,1.0,-999.0,45,0.00,,,0.00,Wunderground v.1.15,2013-11-11 04:45:00,
2013-11-10 23:50:00,51.2,30.6,30.24,NE,45,1.0,-999.0,45,0.00,,,0.00,Wunderground v.1.15,2013-11-11 04:50:00,
2013-11-10 23:55:00,51.2,30.6,30.24,NE,45,1.0,-999.0,45,0.00,,,0.00,Wunderground v.1.15,2013-11-11 04:55:00,